In Rescue
 
Open Full Screen Window  High Contrast Mode
March 19, 2019 7:15 PM EDT
Weather Information
Wind Direction
  ---
Wind Speed
  00 kt (0 mph)
Wind Gust
  00 kt (0 mph)
Altimeter
30.27 in
Visibility
10 SM
Temperature
05° C
41° F
Dewpoint
-04° C
25° F
Humidity
53%
Sky Condition
Scattered @ 5,000 ft
VFR

METAR KBAX 192315Z AUTO 00000KT 10SM SCT050 05/M04 A3027 RMK AO2 T00531041

FAA Disclaimer: The data displayed is for advisory purposes only and is not to be used for flight planning or operations.